sensor_id;sensor_type;location;lat;lon;timestamp;P1;durP1;ratioP1;P2;durP2;ratioP2
11907;SDS011;6014;47.690;9.130;2023-08-21T00:01:38;9.55;;;5.68;;
11907;SDS011;6014;47.690;9.130;2023-08-21T00:04:06;11.43;;;6.68;;
11907;SDS011;6014;47.690;9.130;2023-08-21T00:06:35;10.02;;;5.95;;
11907;SDS011;6014;47.690;9.130;2023-08-21T00:09:03;8.93;;;5.85;;
11907;SDS011;6014;47.690;9.130;2023-08-21T00:11:32;9.40;;;5.40;;
11907;SDS011;6014;47.690;9.130;2023-08-21T00:14:02;7.95;;;5.55;;
11907;SDS011;6014;47.690;9.130;2023-08-21T00:16:30;10.20;;;5.80;;
11907;SDS011;6014;47.690;9.130;2023-08-21T00:18:58;8.25;;;5.82;;
11907;SDS011;6014;47.690;9.130;2023-08-21T00:21:26;8.93;;;6.10;;
11907;SDS011;6014;47.690;9.130;2023-08-21T00:23:56;11.52;;;6.28;;
11907;SDS011;6014;47.690;9.130;2023-08-21T00:26:24;10.63;;;5.70;;
11907;SDS011;6014;47.690;9.130;2023-08-21T00:28:52;8.13;;;6.15;;
11907;SDS011;6014;47.690;9.130;2023-08-21T00:31:20;10.82;;;5.95;;
11907;SDS011;6014;47.690;9.130;2023-08-21T00:33:54;12.98;;;6.03;;
11907;SDS011;6014;47.690;9.130;2023-08-21T00:36:22;9.35;;;6.10;;
11907;SDS011;6014;47.690;9.130;2023-08-21T00:39:03;10.00;;;5.47;;
11907;SDS011;6014;47.690;9.130;2023-08-21T00:41:32;9.55;;;5.60;;
11907;SDS011;6014;47.690;9.130;2023-08-21T00:44:01;9.65;;;6.03;;
11907;SDS011;6014;47.690;9.130;2023-08-21T00:46:30;9.00;;;6.35;;
11907;SDS011;6014;47.690;9.130;2023-08-21T00:48:58;10.95;;;5.85;;
11907;SDS011;6014;47.690;9.130;2023-08-21T00:51:26;10.70;;;6.38;;
11907;SDS011;6014;47.690;9.130;2023-08-21T00:53:55;8.38;;;5.68;;
11907;SDS011;6014;47.690;9.130;2023-08-21T00:56:25;11.20;;;6.50;;
11907;SDS011;6014;47.690;9.130;2023-08-21T00:58:53;13.13;;;6.43;;
11907;SDS011;6014;47.690;9.130;2023-08-21T01:01:22;9.30;;;6.20;;
11907;SDS011;6014;47.690;9.130;2023-08-21T01:06:24;11.50;;;6.35;;
11907;SDS011;6014;47.690;9.130;2023-08-21T01:08:55;10.82;;;6.85;;
11907;SDS011;6014;47.690;9.130;2023-08-21T01:11:30;8.07;;;5.75;;
11907;SDS011;6014;47.690;9.130;2023-08-21T01:14:01;9.30;;;6.55;;
11907;SDS011;6014;47.690;9.130;2023-08-21T01:16:37;12.52;;;6.85;;
11907;SDS011;6014;47.690;9.130;2023-08-21T01:19:07;9.30;;;5.88;;
11907;SDS011;6014;47.690;9.130;2023-08-21T01:21:37;11.38;;;6.40;;
11907;SDS011;6014;47.690;9.130;2023-08-21T01:24:07;8.20;;;6.45;;
11907;SDS011;6014;47.690;9.130;2023-08-21T01:26:35;10.90;;;6.18;;
11907;SDS011;6014;47.690;9.130;2023-08-21T01:29:03;8.80;;;5.90;;
11907;SDS011;6014;47.690;9.130;2023-08-21T01:31:33;8.52;;;6.38;;
11907;SDS011;6014;47.690;9.130;2023-08-21T01:34:04;11.95;;;6.15;;
11907;SDS011;6014;47.690;9.130;2023-08-21T01:36:33;9.45;;;6.68;;
11907;SDS011;6014;47.690;9.130;2023-08-21T01:39:01;8.65;;;6.28;;
11907;SDS011;6014;47.690;9.130;2023-08-21T01:41:33;11.10;;;6.53;;
11907;SDS011;6014;47.690;9.130;2023-08-21T01:44:02;11.00;;;6.50;;
11907;SDS011;6014;47.690;9.130;2023-08-21T01:46:30;10.38;;;5.93;;
11907;SDS011;6014;47.690;9.130;2023-08-21T01:48:59;9.13;;;6.63;;
11907;SDS011;6014;47.690;9.130;2023-08-21T01:51:27;8.10;;;6.18;;
11907;SDS011;6014;47.690;9.130;2023-08-21T01:53:55;10.75;;;7.57;;
11907;SDS011;6014;47.690;9.130;2023-08-21T01:56:24;8.75;;;6.00;;
11907;SDS011;6014;47.690;9.130;2023-08-21T01:58:53;10.90;;;6.78;;
11907;SDS011;6014;47.690;9.130;2023-08-21T02:01:22;9.13;;;6.65;;
11907;SDS011;6014;47.690;9.130;2023-08-21T02:03:50;9.00;;;6.35;;
11907;SDS011;6014;47.690;9.130;2023-08-21T02:06:19;8.32;;;6.10;;
11907;SDS011;6014;47.690;9.130;2023-08-21T02:08:47;12.70;;;7.40;;
11907;SDS011;6014;47.690;9.130;2023-08-21T02:11:32;9.52;;;6.63;;
11907;SDS011;6014;47.690;9.130;2023-08-21T02:14:02;8.57;;;7.03;;
11907;SDS011;6014;47.690;9.130;2023-08-21T02:16:31;9.38;;;6.78;;
11907;SDS011;6014;47.690;9.130;2023-08-21T02:19:00;8.90;;;6.32;;
11907;SDS011;6014;47.690;9.130;2023-08-21T02:21:28;9.77;;;7.22;;
11907;SDS011;6014;47.690;9.130;2023-08-21T02:23:56;11.02;;;7.93;;
11907;SDS011;6014;47.690;9.130;2023-08-21T02:26:25;10.13;;;6.90;;
11907;SDS011;6014;47.690;9.130;2023-08-21T02:28:53;11.82;;;7.25;;
11907;SDS011;6014;47.690;9.130;2023-08-21T02:31:23;11.35;;;6.68;;
11907;SDS011;6014;47.690;9.130;2023-08-21T02:33:51;9.95;;;6.82;;
11907;SDS011;6014;47.690;9.130;2023-08-21T02:36:20;9.77;;;7.05;;
11907;SDS011;6014;47.690;9.130;2023-08-21T02:38:49;11.73;;;7.25;;
11907;SDS011;6014;47.690;9.130;2023-08-21T02:41:17;10.68;;;7.13;;
11907;SDS011;6014;47.690;9.130;2023-08-21T02:43:46;10.00;;;7.20;;
11907;SDS011;6014;47.690;9.130;2023-08-21T02:46:14;13.77;;;7.55;;
11907;SDS011;6014;47.690;9.130;2023-08-21T02:48:45;11.35;;;6.80;;
11907;SDS011;6014;47.690;9.130;2023-08-21T02:51:13;12.30;;;6.63;;
11907;SDS011;6014;47.690;9.130;2023-08-21T02:53:42;9.18;;;6.63;;
11907;SDS011;6014;47.690;9.130;2023-08-21T02:56:10;12.30;;;7.55;;
11907;SDS011;6014;47.690;9.130;2023-08-21T02:58:38;13.38;;;7.10;;
11907;SDS011;6014;47.690;9.130;2023-08-21T03:01:07;9.60;;;6.75;;
11907;SDS011;6014;47.690;9.130;2023-08-21T03:03:35;11.23;;;7.32;;
11907;SDS011;6014;47.690;9.130;2023-08-21T03:06:05;11.02;;;7.13;;
11907;SDS011;6014;47.690;9.130;2023-08-21T03:08:33;8.98;;;6.90;;
11907;SDS011;6014;47.690;9.130;2023-08-21T03:11:01;9.77;;;6.97;;
11907;SDS011;6014;47.690;9.130;2023-08-21T03:13:29;10.00;;;6.55;;
11907;SDS011;6014;47.690;9.130;2023-08-21T03:15:57;10.15;;;7.30;;
11907;SDS011;6014;47.690;9.130;2023-08-21T03:18:25;12.07;;;7.60;;
11907;SDS011;6014;47.690;9.130;2023-08-21T03:20:57;10.48;;;7.40;;
11907;SDS011;6014;47.690;9.130;2023-08-21T03:23:27;9.88;;;6.65;;
11907;SDS011;6014;47.690;9.130;2023-08-21T03:25:55;9.90;;;6.93;;
11907;SDS011;6014;47.690;9.130;2023-08-21T03:28:23;9.98;;;7.25;;
11907;SDS011;6014;47.690;9.130;2023-08-21T03:30:52;9.82;;;7.20;;
11907;SDS011;6014;47.690;9.130;2023-08-21T03:33:20;11.75;;;7.18;;
11907;SDS011;6014;47.690;9.130;2023-08-21T03:35:52;11.20;;;6.63;;
11907;SDS011;6014;47.690;9.130;2023-08-21T03:38:21;16.58;;;8.02;;
11907;SDS011;6014;47.690;9.130;2023-08-21T03:40:50;11.90;;;7.93;;
11907;SDS011;6014;47.690;9.130;2023-08-21T03:43:18;10.00;;;7.10;;
11907;SDS011;6014;47.690;9.130;2023-08-21T03:45:47;11.10;;;6.85;;
11907;SDS011;6014;47.690;9.130;2023-08-21T03:48:15;13.15;;;7.80;;
11907;SDS011;6014;47.690;9.130;2023-08-21T03:50:43;9.95;;;6.80;;
11907;SDS011;6014;47.690;9.130;2023-08-21T03:53:11;9.77;;;6.43;;
11907;SDS011;6014;47.690;9.130;2023-08-21T03:55:39;10.13;;;7.10;;
11907;SDS011;6014;47.690;9.130;2023-08-21T03:58:08;10.07;;;6.90;;
11907;SDS011;6014;47.690;9.130;2023-08-21T04:00:36;10.52;;;7.28;;
11907;SDS011;6014;47.690;9.130;2023-08-21T04:03:04;11.55;;;7.63;;
11907;SDS011;6014;47.690;9.130;2023-08-21T04:05:33;10.07;;;6.95;;
11907;SDS011;6014;47.690;9.130;2023-08-21T04:08:01;10.77;;;7.05;;
11907;SDS011;6014;47.690;9.130;2023-08-21T04:10:29;10.32;;;7.70;;
11907;SDS011;6014;47.690;9.130;2023-08-21T04:12:57;10.00;;;7.13;;
11907;SDS011;6014;47.690;9.130;2023-08-21T04:15:30;15.35;;;7.97;;
11907;SDS011;6014;47.690;9.130;2023-08-21T04:17:58;12.35;;;7.90;;
11907;SDS011;6014;47.690;9.130;2023-08-21T04:20:27;10.75;;;7.05;;
11907;SDS011;6014;47.690;9.130;2023-08-21T04:22:55;9.30;;;6.70;;
11907;SDS011;6014;47.690;9.130;2023-08-21T04:25:23;12.10;;;8.20;;
11907;SDS011;6014;47.690;9.130;2023-08-21T04:27:51;11.60;;;6.93;;
11907;SDS011;6014;47.690;9.130;2023-08-21T04:30:19;10.77;;;7.15;;
11907;SDS011;6014;47.690;9.130;2023-08-21T04:32:48;11.73;;;7.38;;
11907;SDS011;6014;47.690;9.130;2023-08-21T04:35:16;9.50;;;7.45;;
11907;SDS011;6014;47.690;9.130;2023-08-21T04:37:46;9.98;;;7.55;;
11907;SDS011;6014;47.690;9.130;2023-08-21T04:40:14;10.30;;;6.97;;
11907;SDS011;6014;47.690;9.130;2023-08-21T04:42:43;10.57;;;8.13;;
11907;SDS011;6014;47.690;9.130;2023-08-21T04:45:12;10.65;;;7.20;;
11907;SDS011;6014;47.690;9.130;2023-08-21T04:47:40;9.25;;;7.15;;
11907;SDS011;6014;47.690;9.130;2023-08-21T04:50:11;8.82;;;6.97;;
11907;SDS011;6014;47.690;9.130;2023-08-21T04:52:42;12.02;;;7.97;;
11907;SDS011;6014;47.690;9.130;2023-08-21T04:55:10;10.52;;;6.75;;
11907;SDS011;6014;47.690;9.130;2023-08-21T04:57:38;10.35;;;6.80;;
11907;SDS011;6014;47.690;9.130;2023-08-21T05:00:06;10.82;;;7.28;;
11907;SDS011;6014;47.690;9.130;2023-08-21T05:02:36;10.45;;;6.85;;
11907;SDS011;6014;47.690;9.130;2023-08-21T05:05:05;10.95;;;7.28;;
11907;SDS011;6014;47.690;9.130;2023-08-21T05:07:46;10.13;;;7.28;;
11907;SDS011;6014;47.690;9.130;2023-08-21T05:10:14;10.90;;;7.78;;
11907;SDS011;6014;47.690;9.130;2023-08-21T05:12:42;7.95;;;6.22;;
11907;SDS011;6014;47.690;9.130;2023-08-21T05:15:10;10.73;;;7.35;;
11907;SDS011;6014;47.690;9.130;2023-08-21T05:17:38;9.95;;;7.55;;
11907;SDS011;6014;47.690;9.130;2023-08-21T05:20:06;13.63;;;7.15;;
11907;SDS011;6014;47.690;9.130;2023-08-21T05:22:36;10.70;;;7.15;;
11907;SDS011;6014;47.690;9.130;2023-08-21T05:25:07;12.35;;;6.80;;
11907;SDS011;6014;47.690;9.130;2023-08-21T05:27:35;13.38;;;7.22;;
11907;SDS011;6014;47.690;9.130;2023-08-21T05:30:04;8.85;;;6.75;;
11907;SDS011;6014;47.690;9.130;2023-08-21T05:32:33;13.40;;;7.28;;
11907;SDS011;6014;47.690;9.130;2023-08-21T05:35:01;10.75;;;7.53;;
11907;SDS011;6014;47.690;9.130;2023-08-21T05:37:30;10.02;;;7.20;;
11907;SDS011;6014;47.690;9.130;2023-08-21T05:39:58;10.77;;;7.50;;
11907;SDS011;6014;47.690;9.130;2023-08-21T05:42:28;10.07;;;7.35;;
11907;SDS011;6014;47.690;9.130;2023-08-21T05:44:56;11.07;;;7.32;;
11907;SDS011;6014;47.690;9.130;2023-08-21T05:47:24;10.00;;;7.38;;
11907;SDS011;6014;47.690;9.130;2023-08-21T05:49:53;8.95;;;7.18;;
11907;SDS011;6014;47.690;9.130;2023-08-21T05:52:21;9.02;;;6.80;;
11907;SDS011;6014;47.690;9.130;2023-08-21T05:54:49;13.60;;;7.28;;
11907;SDS011;6014;47.690;9.130;2023-08-21T05:57:17;9.63;;;7.05;;
11907;SDS011;6014;47.690;9.130;2023-08-21T05:59:47;10.50;;;6.97;;
11907;SDS011;6014;47.690;9.130;2023-08-21T06:02:15;9.48;;;6.85;;
11907;SDS011;6014;47.690;9.130;2023-08-21T06:04:52;11.30;;;7.85;;
11907;SDS011;6014;47.690;9.130;2023-08-21T06:07:22;15.85;;;7.53;;
11907;SDS011;6014;47.690;9.130;2023-08-21T06:09:50;12.10;;;7.18;;
11907;SDS011;6014;47.690;9.130;2023-08-21T06:12:18;11.20;;;7.15;;
11907;SDS011;6014;47.690;9.130;2023-08-21T06:15:05;11.15;;;7.53;;
11907;SDS011;6014;47.690;9.130;2023-08-21T06:20:11;8.75;;;6.80;;
11907;SDS011;6014;47.690;9.130;2023-08-21T06:22:40;13.80;;;7.68;;
11907;SDS011;6014;47.690;9.130;2023-08-21T06:25:21;8.65;;;6.97;;
11907;SDS011;6014;47.690;9.130;2023-08-21T06:27:49;9.73;;;7.28;;
11907;SDS011;6014;47.690;9.130;2023-08-21T06:30:28;9.57;;;7.55;;
11907;SDS011;6014;47.690;9.130;2023-08-21T06:32:56;10.73;;;6.80;;
11907;SDS011;6014;47.690;9.130;2023-08-21T06:35:24;10.00;;;6.82;;
11907;SDS011;6014;47.690;9.130;2023-08-21T06:37:52;8.95;;;6.57;;
11907;SDS011;6014;47.690;9.130;2023-08-21T06:40:21;10.65;;;7.10;;
11907;SDS011;6014;47.690;9.130;2023-08-21T06:42:49;10.50;;;7.18;;
11907;SDS011;6014;47.690;9.130;2023-08-21T06:45:19;12.00;;;7.28;;
11907;SDS011;6014;47.690;9.130;2023-08-21T06:47:48;14.27;;;7.00;;
11907;SDS011;6014;47.690;9.130;2023-08-21T06:50:17;10.25;;;6.85;;
11907;SDS011;6014;47.690;9.130;2023-08-21T06:52:45;11.88;;;7.07;;
11907;SDS011;6014;47.690;9.130;2023-08-21T06:55:14;10.02;;;7.05;;
11907;SDS011;6014;47.690;9.130;2023-08-21T06:57:42;9.63;;;7.38;;
11907;SDS011;6014;47.690;9.130;2023-08-21T07:00:11;9.88;;;7.03;;
11907;SDS011;6014;47.690;9.130;2023-08-21T07:02:51;9.40;;;6.85;;
11907;SDS011;6014;47.690;9.130;2023-08-21T07:05:26;10.27;;;6.85;;
11907;SDS011;6014;47.690;9.130;2023-08-21T07:07:54;11.35;;;7.15;;
11907;SDS011;6014;47.690;9.130;2023-08-21T07:10:22;14.43;;;7.10;;
11907;SDS011;6014;47.690;9.130;2023-08-21T07:12:50;9.93;;;6.65;;
11907;SDS011;6014;47.690;9.130;2023-08-21T07:15:18;12.05;;;7.05;;
11907;SDS011;6014;47.690;9.130;2023-08-21T07:17:46;10.38;;;6.88;;
11907;SDS011;6014;47.690;9.130;2023-08-21T07:20:16;11.15;;;7.13;;
11907;SDS011;6014;47.690;9.130;2023-08-21T07:22:44;10.43;;;7.07;;
11907;SDS011;6014;47.690;9.130;2023-08-21T07:25:12;11.82;;;7.60;;
11907;SDS011;6014;47.690;9.130;2023-08-21T07:27:47;10.50;;;6.78;;
11907;SDS011;6014;47.690;9.130;2023-08-21T07:30:16;9.18;;;6.57;;
11907;SDS011;6014;47.690;9.130;2023-08-21T07:32:45;9.00;;;6.22;;
11907;SDS011;6014;47.690;9.130;2023-08-21T07:35:27;9.70;;;5.90;;
11907;SDS011;6014;47.690;9.130;2023-08-21T07:37:55;9.00;;;6.20;;
11907;SDS011;6014;47.690;9.130;2023-08-21T07:40:23;9.75;;;6.43;;
11907;SDS011;6014;47.690;9.130;2023-08-21T07:42:52;9.35;;;6.32;;
11907;SDS011;6014;47.690;9.130;2023-08-21T07:45:21;10.18;;;6.13;;
11907;SDS011;6014;47.690;9.130;2023-08-21T07:51:03;9.98;;;5.97;;
11907;SDS011;6014;47.690;9.130;2023-08-21T07:53:32;9.70;;;6.30;;
11907;SDS011;6014;47.690;9.130;2023-08-21T07:56:01;10.98;;;6.43;;
11907;SDS011;6014;47.690;9.130;2023-08-21T07:58:30;9.30;;;5.93;;
11907;SDS011;6014;47.690;9.130;2023-08-21T08:01:00;10.13;;;5.88;;
11907;SDS011;6014;47.690;9.130;2023-08-21T08:03:31;12.27;;;6.28;;
11907;SDS011;6014;47.690;9.130;2023-08-21T08:06:17;9.45;;;5.97;;
11907;SDS011;6014;47.690;9.130;2023-08-21T08:08:48;10.75;;;6.10;;
11907;SDS011;6014;47.690;9.130;2023-08-21T08:14:19;11.05;;;6.75;;
11907;SDS011;6014;47.690;9.130;2023-08-21T08:17:01;9.20;;;5.60;;
11907;SDS011;6014;47.690;9.130;2023-08-21T08:19:29;7.63;;;5.82;;
11907;SDS011;6014;47.690;9.130;2023-08-21T08:22:01;8.82;;;5.90;;
11907;SDS011;6014;47.690;9.130;2023-08-21T08:24:29;9.00;;;5.88;;
11907;SDS011;6014;47.690;9.130;2023-08-21T08:26:57;10.13;;;6.38;;
11907;SDS011;6014;47.690;9.130;2023-08-21T08:29:25;8.57;;;5.57;;
11907;SDS011;6014;47.690;9.130;2023-08-21T08:31:53;8.00;;;5.65;;
11907;SDS011;6014;47.690;9.130;2023-08-21T08:34:21;9.73;;;6.05;;
11907;SDS011;6014;47.690;9.130;2023-08-21T08:36:50;9.07;;;5.30;;
11907;SDS011;6014;47.690;9.130;2023-08-21T08:39:20;8.77;;;5.40;;
11907;SDS011;6014;47.690;9.130;2023-08-21T08:41:48;8.60;;;5.38;;
11907;SDS011;6014;47.690;9.130;2023-08-21T08:44:21;8.27;;;5.60;;
11907;SDS011;6014;47.690;9.130;2023-08-21T08:46:52;8.43;;;5.45;;
11907;SDS011;6014;47.690;9.130;2023-08-21T08:49:21;9.02;;;5.75;;
11907;SDS011;6014;47.690;9.130;2023-08-21T08:54:26;10.48;;;5.47;;
11907;SDS011;6014;47.690;9.130;2023-08-21T08:56:54;9.43;;;5.90;;
11907;SDS011;6014;47.690;9.130;2023-08-21T08:59:23;8.32;;;5.50;;
11907;SDS011;6014;47.690;9.130;2023-08-21T09:01:52;8.63;;;5.55;;
11907;SDS011;6014;47.690;9.130;2023-08-21T09:04:22;7.70;;;5.25;;
11907;SDS011;6014;47.690;9.130;2023-08-21T09:06:51;10.80;;;5.88;;
11907;SDS011;6014;47.690;9.130;2023-08-21T09:09:19;10.73;;;5.47;;
11907;SDS011;6014;47.690;9.130;2023-08-21T09:11:48;9.52;;;5.50;;
11907;SDS011;6014;47.690;9.130;2023-08-21T09:14:25;9.27;;;5.53;;
11907;SDS011;6014;47.690;9.130;2023-08-21T09:16:58;8.10;;;5.30;;
11907;SDS011;6014;47.690;9.130;2023-08-21T09:19:30;10.85;;;5.40;;
11907;SDS011;6014;47.690;9.130;2023-08-21T09:21:59;9.25;;;5.07;;
11907;SDS011;6014;47.690;9.130;2023-08-21T09:24:36;9.82;;;5.72;;
11907;SDS011;6014;47.690;9.130;2023-08-21T09:27:10;7.60;;;5.03;;
11907;SDS011;6014;47.690;9.130;2023-08-21T09:29:41;6.93;;;4.90;;
11907;SDS011;6014;47.690;9.130;2023-08-21T09:32:09;7.57;;;5.03;;
11907;SDS011;6014;47.690;9.130;2023-08-21T09:34:37;7.68;;;5.50;;
11907;SDS011;6014;47.690;9.130;2023-08-21T09:37:06;8.77;;;5.30;;
11907;SDS011;6014;47.690;9.130;2023-08-21T09:39:35;10.20;;;5.70;;
11907;SDS011;6014;47.690;9.130;2023-08-21T09:42:08;7.53;;;5.25;;
11907;SDS011;6014;47.690;9.130;2023-08-21T09:44:37;12.27;;;6.55;;
11907;SDS011;6014;47.690;9.130;2023-08-21T09:47:08;10.68;;;5.47;;
11907;SDS011;6014;47.690;9.130;2023-08-21T09:49:48;11.00;;;5.03;;
11907;SDS011;6014;47.690;9.130;2023-08-21T09:52:16;8.10;;;4.95;;
11907;SDS011;6014;47.690;9.130;2023-08-21T09:54:44;9.98;;;5.43;;
11907;SDS011;6014;47.690;9.130;2023-08-21T09:57:20;8.32;;;4.78;;
11907;SDS011;6014;47.690;9.130;2023-08-21T09:59:51;10.38;;;5.15;;
11907;SDS011;6014;47.690;9.130;2023-08-21T10:02:21;10.68;;;4.68;;
11907;SDS011;6014;47.690;9.130;2023-08-21T10:04:50;10.65;;;5.40;;
11907;SDS011;6014;47.690;9.130;2023-08-21T10:07:21;8.43;;;5.28;;
11907;SDS011;6014;47.690;9.130;2023-08-21T10:09:53;12.13;;;5.07;;
11907;SDS011;6014;47.690;9.130;2023-08-21T10:12:24;7.70;;;5.03;;
11907;SDS011;6014;47.690;9.130;2023-08-21T10:14:53;8.82;;;5.05;;
11907;SDS011;6014;47.690;9.130;2023-08-21T10:17:21;7.90;;;4.82;;
11907;SDS011;6014;47.690;9.130;2023-08-21T10:19:50;7.82;;;5.03;;
11907;SDS011;6014;47.690;9.130;2023-08-21T10:25:14;8.93;;;4.55;;
11907;SDS011;6014;47.690;9.130;2023-08-21T10:27:44;8.38;;;4.90;;
11907;SDS011;6014;47.690;9.130;2023-08-21T10:30:14;8.18;;;4.75;;
11907;SDS011;6014;47.690;9.130;2023-08-21T10:32:58;7.15;;;4.70;;
11907;SDS011;6014;47.690;9.130;2023-08-21T10:35:42;11.55;;;4.75;;
11907;SDS011;6014;47.690;9.130;2023-08-21T10:38:21;8.07;;;4.95;;
11907;SDS011;6014;47.690;9.130;2023-08-21T10:41:06;9.48;;;4.88;;
11907;SDS011;6014;47.690;9.130;2023-08-21T10:43:45;8.07;;;4.75;;
11907;SDS011;6014;47.690;9.130;2023-08-21T10:46:20;9.20;;;4.82;;
11907;SDS011;6014;47.690;9.130;2023-08-21T10:48:57;7.97;;;5.30;;
11907;SDS011;6014;47.690;9.130;2023-08-21T10:51:38;10.15;;;5.15;;
11907;SDS011;6014;47.690;9.130;2023-08-21T10:54:17;9.68;;;4.43;;
11907;SDS011;6014;47.690;9.130;2023-08-21T10:56:57;9.63;;;4.65;;
11907;SDS011;6014;47.690;9.130;2023-08-21T11:00:03;8.27;;;4.93;;
11907;SDS011;6014;47.690;9.130;2023-08-21T11:02:46;8.80;;;5.15;;
11907;SDS011;6014;47.690;9.130;2023-08-21T11:05:45;8.93;;;4.47;;
11907;SDS011;6014;47.690;9.130;2023-08-21T11:09:12;8.32;;;4.72;;
11907;SDS011;6014;47.690;9.130;2023-08-21T11:12:04;9.60;;;4.43;;
11907;SDS011;6014;47.690;9.130;2023-08-21T11:14:41;10.23;;;4.65;;
11907;SDS011;6014;47.690;9.130;2023-08-21T11:17:32;7.20;;;4.65;;
11907;SDS011;6014;47.690;9.130;2023-08-21T11:20:18;8.07;;;4.50;;
11907;SDS011;6014;47.690;9.130;2023-08-21T11:22:59;8.63;;;4.60;;
11907;SDS011;6014;47.690;9.130;2023-08-21T11:25:40;8.68;;;4.25;;
11907;SDS011;6014;47.690;9.130;2023-08-21T11:28:53;7.93;;;4.40;;
11907;SDS011;6014;47.690;9.130;2023-08-21T11:31:49;7.88;;;4.30;;
11907;SDS011;6014;47.690;9.130;2023-08-21T11:34:56;9.32;;;4.53;;
11907;SDS011;6014;47.690;9.130;2023-08-21T11:37:45;8.18;;;4.28;;
11907;SDS011;6014;47.690;9.130;2023-08-21T11:40:38;7.30;;;4.03;;
11907;SDS011;6014;47.690;9.130;2023-08-21T11:43:33;7.57;;;4.55;;
11907;SDS011;6014;47.690;9.130;2023-08-21T11:46:15;6.97;;;4.20;;
11907;SDS011;6014;47.690;9.130;2023-08-21T11:49:11;8.68;;;4.80;;
11907;SDS011;6014;47.690;9.130;2023-08-21T11:52:06;7.97;;;4.97;;
11907;SDS011;6014;47.690;9.130;2023-08-21T12:01:08;9.00;;;4.97;;
11907;SDS011;6014;47.690;9.130;2023-08-21T12:07:17;11.50;;;5.00;;
11907;SDS011;6014;47.690;9.130;2023-08-21T12:10:10;8.18;;;3.92;;
11907;SDS011;6014;47.690;9.130;2023-08-21T12:13:10;8.75;;;4.30;;
11907;SDS011;6014;47.690;9.130;2023-08-21T12:16:00;7.75;;;4.55;;
11907;SDS011;6014;47.690;9.130;2023-08-21T12:18:51;8.65;;;3.63;;
11907;SDS011;6014;47.690;9.130;2023-08-21T12:21:39;11.52;;;4.20;;
11907;SDS011;6014;47.690;9.130;2023-08-21T12:24:28;6.47;;;3.97;;
11907;SDS011;6014;47.690;9.130;2023-08-21T12:27:07;7.85;;;3.90;;
11907;SDS011;6014;47.690;9.130;2023-08-21T12:29:57;8.98;;;4.00;;
11907;SDS011;6014;47.690;9.130;2023-08-21T12:32:43;8.02;;;3.70;;
11907;SDS011;6014;47.690;9.130;2023-08-21T12:35:54;7.95;;;3.67;;
11907;SDS011;6014;47.690;9.130;2023-08-21T12:38:50;7.50;;;4.47;;
11907;SDS011;6014;47.690;9.130;2023-08-21T12:41:40;8.80;;;4.30;;
11907;SDS011;6014;47.690;9.130;2023-08-21T12:44:40;7.95;;;3.50;;
11907;SDS011;6014;47.690;9.130;2023-08-21T12:50:22;6.47;;;3.22;;
11907;SDS011;6014;47.690;9.130;2023-08-21T12:53:21;6.32;;;3.50;;
11907;SDS011;6014;47.690;9.130;2023-08-21T12:56:03;10.35;;;3.60;;
11907;SDS011;6014;47.690;9.130;2023-08-21T12:58:39;5.35;;;3.25;;
11907;SDS011;6014;47.690;9.130;2023-08-21T13:01:27;6.93;;;3.05;;
11907;SDS011;6014;47.690;9.130;2023-08-21T13:08:05;9.27;;;3.17;;
11907;SDS011;6014;47.690;9.130;2023-08-21T13:10:51;5.80;;;2.90;;
11907;SDS011;6014;47.690;9.130;2023-08-21T13:13:32;5.88;;;2.70;;
11907;SDS011;6014;47.690;9.130;2023-08-21T13:16:19;5.60;;;3.20;;
11907;SDS011;6014;47.690;9.130;2023-08-21T13:19:00;6.53;;;3.10;;
11907;SDS011;6014;47.690;9.130;2023-08-21T13:22:04;10.32;;;3.75;;
11907;SDS011;6014;47.690;9.130;2023-08-21T13:24:44;6.57;;;2.83;;
11907;SDS011;6014;47.690;9.130;2023-08-21T13:27:50;7.78;;;3.15;;
11907;SDS011;6014;47.690;9.130;2023-08-21T13:30:32;6.63;;;3.05;;
11907;SDS011;6014;47.690;9.130;2023-08-21T13:33:26;5.55;;;3.17;;
11907;SDS011;6014;47.690;9.130;2023-08-21T13:36:22;13.02;;;4.55;;
11907;SDS011;6014;47.690;9.130;2023-08-21T13:39:25;7.32;;;3.50;;
11907;SDS011;6014;47.690;9.130;2023-08-21T13:42:18;6.32;;;3.38;;
11907;SDS011;6014;47.690;9.130;2023-08-21T13:48:07;6.78;;;3.45;;
11907;SDS011;6014;47.690;9.130;2023-08-21T13:50:58;8.43;;;3.60;;
11907;SDS011;6014;47.690;9.130;2023-08-21T13:53:34;10.35;;;3.67;;
11907;SDS011;6014;47.690;9.130;2023-08-21T13:56:08;7.07;;;3.47;;
11907;SDS011;6014;47.690;9.130;2023-08-21T13:58:48;5.57;;;3.30;;
11907;SDS011;6014;47.690;9.130;2023-08-21T14:01:28;6.28;;;3.55;;
11907;SDS011;6014;47.690;9.130;2023-08-21T14:04:06;7.60;;;3.60;;
11907;SDS011;6014;47.690;9.130;2023-08-21T14:06:50;6.78;;;3.40;;
11907;SDS011;6014;47.690;9.130;2023-08-21T14:09:33;8.38;;;3.72;;
11907;SDS011;6014;47.690;9.130;2023-08-21T14:12:20;6.40;;;3.63;;
11907;SDS011;6014;47.690;9.130;2023-08-21T14:14:54;9.05;;;3.97;;
11907;SDS011;6014;47.690;9.130;2023-08-21T14:17:44;8.52;;;3.78;;
11907;SDS011;6014;47.690;9.130;2023-08-21T14:20:27;8.05;;;4.03;;
11907;SDS011;6014;47.690;9.130;2023-08-21T14:23:05;8.50;;;4.07;;
11907;SDS011;6014;47.690;9.130;2023-08-21T14:25:36;6.43;;;3.60;;
11907;SDS011;6014;47.690;9.130;2023-08-21T14:28:15;7.32;;;3.75;;
11907;SDS011;6014;47.690;9.130;2023-08-21T14:30:46;7.30;;;3.72;;
11907;SDS011;6014;47.690;9.130;2023-08-21T14:33:25;8.05;;;4.22;;
11907;SDS011;6014;47.690;9.130;2023-08-21T14:36:11;6.93;;;3.50;;
11907;SDS011;6014;47.690;9.130;2023-08-21T14:38:53;6.65;;;3.55;;
11907;SDS011;6014;47.690;9.130;2023-08-21T14:41:42;6.35;;;4.13;;
11907;SDS011;6014;47.690;9.130;2023-08-21T14:44:26;7.70;;;3.95;;
11907;SDS011;6014;47.690;9.130;2023-08-21T14:47:11;5.53;;;3.45;;
11907;SDS011;6014;47.690;9.130;2023-08-21T14:50:00;6.82;;;3.60;;
11907;SDS011;6014;47.690;9.130;2023-08-21T14:52:51;6.65;;;3.60;;
11907;SDS011;6014;47.690;9.130;2023-08-21T14:55:31;5.97;;;3.35;;
11907;SDS011;6014;47.690;9.130;2023-08-21T14:58:16;7.05;;;3.58;;
11907;SDS011;6014;47.690;9.130;2023-08-21T15:01:12;7.78;;;3.58;;
11907;SDS011;6014;47.690;9.130;2023-08-21T15:03:48;7.22;;;3.60;;
11907;SDS011;6014;47.690;9.130;2023-08-21T15:06:27;8.25;;;3.80;;
11907;SDS011;6014;47.690;9.130;2023-08-21T15:09:01;6.93;;;3.70;;
11907;SDS011;6014;47.690;9.130;2023-08-21T15:11:37;7.57;;;3.40;;
11907;SDS011;6014;47.690;9.130;2023-08-21T15:14:22;5.80;;;3.10;;
11907;SDS011;6014;47.690;9.130;2023-08-21T15:17:15;6.38;;;3.10;;
11907;SDS011;6014;47.690;9.130;2023-08-21T15:19:57;7.65;;;3.38;;
11907;SDS011;6014;47.690;9.130;2023-08-21T15:22:38;6.38;;;3.60;;
11907;SDS011;6014;47.690;9.130;2023-08-21T15:25:26;7.63;;;3.47;;
11907;SDS011;6014;47.690;9.130;2023-08-21T15:28:04;8.95;;;3.20;;
11907;SDS011;6014;47.690;9.130;2023-08-21T15:34:06;5.97;;;3.00;;
11907;SDS011;6014;47.690;9.130;2023-08-21T15:36:51;5.80;;;3.58;;
11907;SDS011;6014;47.690;9.130;2023-08-21T15:39:30;6.60;;;3.00;;
11907;SDS011;6014;47.690;9.130;2023-08-21T15:42:09;6.88;;;3.08;;
11907;SDS011;6014;47.690;9.130;2023-08-21T15:44:42;8.75;;;3.35;;
11907;SDS011;6014;47.690;9.130;2023-08-21T15:47:21;7.32;;;2.90;;
11907;SDS011;6014;47.690;9.130;2023-08-21T15:49:59;6.57;;;2.95;;
11907;SDS011;6014;47.690;9.130;2023-08-21T15:52:34;10.07;;;3.42;;
11907;SDS011;6014;47.690;9.130;2023-08-21T15:55:24;8.27;;;2.90;;
11907;SDS011;6014;47.690;9.130;2023-08-21T15:58:01;6.03;;;2.83;;
11907;SDS011;6014;47.690;9.130;2023-08-21T16:00:52;6.60;;;3.40;;
11907;SDS011;6014;47.690;9.130;2023-08-21T16:03:30;5.65;;;2.75;;
11907;SDS011;6014;47.690;9.130;2023-08-21T16:06:18;5.10;;;2.83;;
11907;SDS011;6014;47.690;9.130;2023-08-21T16:09:11;7.60;;;2.58;;
11907;SDS011;6014;47.690;9.130;2023-08-21T16:12:16;7.07;;;3.20;;
11907;SDS011;6014;47.690;9.130;2023-08-21T16:17:50;6.10;;;3.22;;
11907;SDS011;6014;47.690;9.130;2023-08-21T16:20:30;9.05;;;3.10;;
11907;SDS011;6014;47.690;9.130;2023-08-21T16:23:19;6.47;;;2.90;;
11907;SDS011;6014;47.690;9.130;2023-08-21T16:26:00;7.80;;;2.78;;